createdAt,value
2019-01-26T00:00:40.029Z,-0.87
2019-01-26T00:01:47.466Z,-0.86
2019-01-26T00:02:53.469Z,-0.78
2019-01-26T00:04:00.434Z,-0.90
2019-01-26T00:05:06.139Z,-0.90
2019-01-26T00:06:12.172Z,-0.90
2019-01-26T00:07:18.606Z,-1.02
2019-01-26T00:08:24.997Z,-0.84
2019-01-26T00:09:31.360Z,-0.68
2019-01-26T00:10:37.436Z,-0.88
2019-01-26T00:11:43.864Z,-0.84
2019-01-26T00:12:50.231Z,-0.76
2019-01-26T00:13:56.894Z,-0.75
2019-01-26T00:15:02.755Z,-0.61
2019-01-26T00:16:08.749Z,-0.64
2019-01-26T00:17:15.130Z,-0.82
2019-01-26T00:18:21.532Z,-0.64
2019-01-26T00:19:27.920Z,-0.70
2019-01-26T00:20:36.479Z,-0.64
2019-01-26T00:21:40.699Z,-0.65
2019-01-26T00:22:47.431Z,-0.67
2019-01-26T00:23:53.765Z,-0.51
2019-01-26T00:25:00.173Z,-0.53
2019-01-26T00:26:06.025Z,-0.59
2019-01-26T00:27:12.410Z,-0.66
2019-01-26T00:28:18.778Z,-0.47
2019-01-26T00:29:25.172Z,-0.46
2019-01-26T00:30:30.815Z,-0.37
2019-01-26T00:31:37.182Z,-0.32
2019-01-26T00:32:43.579Z,-0.39
2019-01-26T00:33:49.922Z,-0.33
2019-01-26T00:34:56.377Z,-0.31
2019-01-26T00:36:02.370Z,-0.27
2019-01-26T00:37:08.826Z,-0.18
2019-01-26T00:38:14.502Z,-0.19
2019-01-26T00:39:20.879Z,-0.35
2019-01-26T00:40:27.004Z,-0.43
2019-01-26T00:41:33.017Z,-0.25
2019-01-26T00:42:39.067Z,-0.18
2019-01-26T00:43:45.962Z,-0.15
2019-01-26T00:44:52.347Z,-0.18
2019-01-26T00:45:58.714Z,-0.07
2019-01-26T00:47:04.350Z,-0.13
2019-01-26T00:48:10.407Z,-0.08
2019-01-26T00:49:16.779Z,-0.17
2019-01-26T00:50:23.174Z,-0.32
2019-01-26T00:51:29.532Z,-0.20
2019-01-26T00:52:35.868Z,-0.14
2019-01-26T00:53:42.258Z,-0.13
2019-01-26T00:54:48.648Z,-0.17
2019-01-26T00:55:54.652Z,-0.12
2019-01-26T00:57:01.028Z,-0.13
2019-01-26T00:58:07.397Z,-0.13
2019-01-26T00:59:13.773Z,-0.11
2019-01-26T01:00:20.082Z,0.00
2019-01-26T01:01:25.733Z,-0.02
2019-01-26T01:02:32.093Z,0.04
2019-01-26T01:03:37.945Z,0.10
2019-01-26T01:04:44.315Z,0.08
2019-01-26T01:05:50.316Z,0.09
2019-01-26T01:06:56.346Z,0.08
2019-01-26T01:08:02.328Z,-0.07
2019-01-26T01:09:08.029Z,-0.07
2019-01-26T01:10:14.658Z,-0.02
2019-01-26T01:11:21.024Z,-0.15
2019-01-26T01:12:27.353Z,-0.15
2019-01-26T01:13:33.386Z,-0.09
2019-01-26T01:14:39.372Z,-0.13
2019-01-26T01:15:45.348Z,-0.11
2019-01-26T01:16:51.718Z,-0.06
2019-01-26T01:17:58.077Z,-0.11
2019-01-26T01:19:03.767Z,-0.10
2019-01-26T01:20:09.592Z,-0.28
2019-01-26T01:21:15.988Z,-0.17
2019-01-26T01:22:22.346Z,-0.17
2019-01-26T01:23:28.702Z,-0.24
2019-01-26T01:24:35.248Z,-0.22
2019-01-26T01:25:42.368Z,-0.13
2019-01-26T01:26:49.259Z,-0.12
2019-01-26T01:28:00.835Z,-0.12
2019-01-26T01:30:21.524Z,-0.19
2019-01-26T01:31:27.904Z,-0.12
2019-01-26T01:32:34.264Z,-0.10
2019-01-26T01:33:40.632Z,-0.07
2019-01-26T01:34:47.003Z,-0.07
2019-01-26T01:35:52.999Z,-0.13
2019-01-26T01:36:59.351Z,-0.09
2019-01-26T01:38:11.538Z,-0.19
2019-01-26T01:39:17.906Z,-0.23
2019-01-26T01:40:23.962Z,-0.20
2019-01-26T01:41:30.320Z,-0.25
2019-01-26T01:42:36.298Z,-0.20
2019-01-26T01:43:42.298Z,-0.17
2019-01-26T01:44:48.283Z,-0.08
2019-01-26T01:45:54.614Z,-0.10
2019-01-26T01:47:00.725Z,-0.09
2019-01-26T01:48:06.708Z,-0.12
2019-01-26T01:49:13.084Z,-0.09
2019-01-26T01:50:19.035Z,-0.10
2019-01-26T01:51:25.373Z,-0.03
2019-01-26T01:52:31.757Z,-0.05
2019-01-26T01:53:38.167Z,-0.05
2019-01-26T01:54:44.517Z,-0.06
2019-01-26T01:55:50.870Z,-0.14
2019-01-26T01:56:57.267Z,-0.13
2019-01-26T01:58:03.610Z,-0.10
2019-01-26T01:59:09.993Z,-0.12
2019-01-26T02:00:17.151Z,-0.02
2019-01-26T02:01:23.540Z,-0.03
2019-01-26T02:02:28.856Z,-0.02
2019-01-26T02:03:35.287Z,-0.01
2019-01-26T02:04:41.679Z,-0.12
2019-01-26T02:05:48.061Z,-0.03
2019-01-26T02:06:54.390Z,-0.16
2019-01-26T02:08:00.771Z,-0.13
2019-01-26T02:09:06.487Z,-0.23
2019-01-26T02:10:12.147Z,-0.17
2019-01-26T02:11:18.534Z,-0.14
2019-01-26T02:12:24.914Z,-0.14
2019-01-26T02:13:31.264Z,-0.21
2019-01-26T02:14:37.687Z,-0.06
2019-01-26T02:15:43.729Z,-0.12
2019-01-26T02:16:50.373Z,-0.21
2019-01-26T02:17:56.556Z,-0.30
2019-01-26T02:19:02.912Z,-0.21
2019-01-26T02:20:09.458Z,-0.23
2019-01-26T02:21:15.100Z,-0.26
2019-01-26T02:22:21.469Z,-0.32
2019-01-26T02:23:27.859Z,-0.22
2019-01-26T02:24:33.919Z,-0.12
2019-01-26T02:25:40.320Z,-0.07
2019-01-26T02:26:46.741Z,-0.08
2019-01-26T02:27:52.694Z,-0.11
2019-01-26T02:28:59.688Z,-0.07
2019-01-26T02:30:05.318Z,-0.07
2019-01-26T02:31:11.447Z,0.04
2019-01-26T02:32:17.834Z,-0.03
2019-01-26T02:33:25.166Z,-0.14
2019-01-26T02:34:31.487Z,-0.08
2019-01-26T02:35:37.947Z,-0.13
2019-01-26T02:36:44.400Z,-0.10
2019-01-26T02:37:50.746Z,-0.05
2019-01-26T02:38:57.101Z,-0.05
2019-01-26T02:40:03.212Z,-0.04
2019-01-26T02:41:09.099Z,-0.17
2019-01-26T02:42:15.513Z,-0.08
2019-01-26T02:43:21.911Z,-0.07
2019-01-26T02:44:28.270Z,0.00
2019-01-26T02:45:34.677Z,0.08
2019-01-26T02:46:41.067Z,0.07
2019-01-26T02:47:47.052Z,0.03
2019-01-26T02:48:53.392Z,0.02
2019-01-26T02:50:00.500Z,-0.03
2019-01-26T02:51:07.872Z,0.01
2019-01-26T02:52:14.342Z,0.13
2019-01-26T02:53:20.753Z,0.10
2019-01-26T02:54:27.117Z,0.16
2019-01-26T02:55:33.109Z,0.02
2019-01-26T02:56:39.503Z,0.18
2019-01-26T02:57:45.508Z,0.04
2019-01-26T02:58:51.844Z,0.22
2019-01-26T02:59:58.233Z,0.19
2019-01-26T03:01:04.235Z,0.20
2019-01-26T03:02:10.672Z,0.35
2019-01-26T03:03:17.069Z,0.29
2019-01-26T03:04:23.447Z,0.23
2019-01-26T03:05:29.757Z,0.22
2019-01-26T03:06:36.131Z,0.26
2019-01-26T03:07:42.574Z,0.29
2019-01-26T03:08:48.945Z,0.18
2019-01-26T03:09:55.273Z,0.27
2019-01-26T03:11:01.671Z,0.32
2019-01-26T03:12:07.746Z,0.43
2019-01-26T03:13:14.765Z,0.32
2019-01-26T03:14:21.886Z,0.25
2019-01-26T03:15:28.069Z,0.36
2019-01-26T03:16:34.497Z,0.50
2019-01-26T03:17:40.539Z,0.47
2019-01-26T03:18:46.943Z,0.53
2019-01-26T03:19:53.498Z,0.58
2019-01-26T03:20:59.981Z,0.56
2019-01-26T03:22:06.541Z,0.65
2019-01-26T03:23:13.026Z,0.62
2019-01-26T03:24:19.195Z,0.57
2019-01-26T03:25:25.753Z,0.59
2019-01-26T03:26:32.148Z,0.58
2019-01-26T03:27:38.662Z,0.68
2019-01-26T03:28:45.127Z,0.58
2019-01-26T03:29:51.836Z,0.71
2019-01-26T03:30:58.316Z,0.53
2019-01-26T03:32:04.371Z,0.62
2019-01-26T03:33:10.778Z,0.67
2019-01-26T03:34:17.277Z,0.65
2019-01-26T03:35:23.837Z,0.72
2019-01-26T03:36:30.290Z,0.72
2019-01-26T03:37:36.667Z,0.77
2019-01-26T03:38:43.147Z,0.86
2019-01-26T03:39:49.590Z,0.76
2019-01-26T03:40:55.989Z,0.72
2019-01-26T03:42:02.272Z,0.70
2019-01-26T03:43:08.732Z,0.73
2019-01-26T03:44:15.136Z,0.91
2019-01-26T03:45:20.806Z,0.91
2019-01-26T03:46:27.314Z,0.82
2019-01-26T03:47:33.941Z,0.85
2019-01-26T03:48:40.372Z,0.97
2019-01-26T03:49:46.839Z,0.88
2019-01-26T03:50:53.200Z,0.85
2019-01-26T03:51:59.715Z,0.80
2019-01-26T03:53:06.542Z,0.83
2019-01-26T03:54:13.104Z,0.91
2019-01-26T03:55:18.959Z,0.96
2019-01-26T03:56:26.273Z,1.04
2019-01-26T03:57:32.586Z,1.11
2019-01-26T03:58:38.953Z,1.12
2019-01-26T03:59:45.050Z,1.17
2019-01-26T04:00:51.604Z,1.09
2019-01-26T04:01:57.640Z,1.07
2019-01-26T04:03:03.808Z,1.09
2019-01-26T04:04:10.151Z,0.93
2019-01-26T04:05:16.307Z,1.02
2019-01-26T04:06:22.791Z,0.97
2019-01-26T04:07:29.279Z,1.01
2019-01-26T04:08:36.404Z,1.06
2019-01-26T04:09:42.930Z,1.02
2019-01-26T04:10:49.246Z,0.98
2019-01-26T04:11:55.739Z,1.11
2019-01-26T04:13:02.199Z,1.13
2019-01-26T04:14:08.670Z,1.15
2019-01-26T04:15:14.447Z,1.24
2019-01-26T04:16:21.533Z,1.23
2019-01-26T04:17:27.990Z,1.21
2019-01-26T04:18:34.647Z,1.03
2019-01-26T04:19:41.942Z,1.07
2019-01-26T04:20:48.504Z,0.95
2019-01-26T04:21:54.984Z,0.98
2019-01-26T04:23:01.381Z,1.07
2019-01-26T04:24:07.987Z,1.12
2019-01-26T04:25:14.093Z,1.20
2019-01-26T04:26:20.214Z,1.20
2019-01-26T04:27:26.599Z,1.19
2019-01-26T04:28:33.065Z,1.23
2019-01-26T04:29:39.623Z,1.21
2019-01-26T04:30:45.975Z,1.21
2019-01-26T04:31:52.414Z,1.20
2019-01-26T04:32:58.846Z,1.19
2019-01-26T04:34:05.247Z,1.20
2019-01-26T04:35:10.937Z,1.26
2019-01-26T04:36:17.435Z,1.25
2019-01-26T04:37:23.563Z,1.31
2019-01-26T04:38:30.210Z,1.19
2019-01-26T04:39:36.598Z,1.20
2019-01-26T04:40:44.168Z,1.20
2019-01-26T04:41:51.104Z,1.25
2019-01-26T04:42:57.790Z,1.35
2019-01-26T04:44:03.967Z,1.35
2019-01-26T04:45:09.794Z,1.31
2019-01-26T04:46:15.951Z,1.10
2019-01-26T04:47:30.549Z,1.10
2019-01-26T04:48:28.858Z,1.21
2019-01-26T04:49:35.248Z,1.25
2019-01-26T04:50:42.467Z,1.21
2019-01-26T04:51:47.870Z,1.18
2019-01-26T04:52:54.087Z,1.16
2019-01-26T04:54:00.578Z,1.26
2019-01-26T04:55:06.224Z,1.18
2019-01-26T04:56:12.752Z,1.23
2019-01-26T04:57:19.270Z,1.27
2019-01-26T04:58:25.850Z,1.29
2019-01-26T04:59:32.322Z,1.26
2019-01-26T05:00:39.173Z,1.36
2019-01-26T05:01:45.667Z,1.28
2019-01-26T05:02:51.823Z,1.19
2019-01-26T05:03:58.364Z,1.22
2019-01-26T05:05:04.269Z,1.22
2019-01-26T05:06:10.639Z,1.17
2019-01-26T05:07:17.018Z,1.22
2019-01-26T05:08:23.438Z,1.24
2019-01-26T05:09:29.865Z,1.17
2019-01-26T05:10:36.351Z,1.20
2019-01-26T05:11:42.860Z,1.16
2019-01-26T05:12:48.629Z,1.16
2019-01-26T05:13:57.932Z,1.36
2019-01-26T05:15:03.567Z,1.36
2019-01-26T05:16:09.993Z,1.40
2019-01-26T05:17:16.342Z,1.43
2019-01-26T05:18:22.827Z,1.38
2019-01-26T05:19:29.398Z,1.42
2019-01-26T05:20:35.991Z,1.47
2019-01-26T05:21:42.367Z,1.45
2019-01-26T05:22:48.470Z,1.46
2019-01-26T05:23:54.962Z,1.48
2019-01-26T05:25:01.405Z,1.50
2019-01-26T05:26:07.424Z,1.38
2019-01-26T05:27:13.879Z,1.36
2019-01-26T05:28:19.866Z,1.48
2019-01-26T05:29:27.084Z,1.51
2019-01-26T05:30:33.275Z,1.49
2019-01-26T05:31:39.636Z,1.42
2019-01-26T05:32:45.976Z,1.49
2019-01-26T05:33:52.394Z,1.47
2019-01-26T05:34:58.747Z,1.38
2019-01-26T05:36:04.405Z,1.40
2019-01-26T05:37:10.414Z,1.43
2019-01-26T05:38:16.856Z,1.34
2019-01-26T05:39:22.882Z,1.31
2019-01-26T05:40:29.227Z,1.39
2019-01-26T05:41:35.581Z,1.50
2019-01-26T05:42:41.578Z,1.51
2019-01-26T05:43:48.016Z,1.37
2019-01-26T05:44:54.363Z,1.48
2019-01-26T05:46:00.406Z,1.48
2019-01-26T05:47:06.821Z,1.35
2019-01-26T05:48:12.794Z,1.31
2019-01-26T05:49:19.220Z,1.31
2019-01-26T05:50:24.874Z,1.33
2019-01-26T05:51:31.207Z,1.51
2019-01-26T05:52:37.563Z,1.58
2019-01-26T05:53:44.012Z,1.60
2019-01-26T05:54:50.077Z,1.58
2019-01-26T05:55:56.019Z,1.48
2019-01-26T05:57:02.341Z,1.44
2019-01-26T05:58:08.319Z,1.40
2019-01-26T05:59:14.366Z,1.50
2019-01-26T06:00:19.801Z,1.44
2019-01-26T06:01:25.809Z,1.51
2019-01-26T06:02:32.157Z,1.48
2019-01-26T06:03:38.657Z,1.48
2019-01-26T06:04:45.577Z,1.46
2019-01-26T06:05:52.237Z,1.46
2019-01-26T06:06:58.598Z,1.50
2019-01-26T06:08:04.251Z,1.61
2019-01-26T06:09:10.614Z,1.58
2019-01-26T06:10:16.966Z,1.53
2019-01-26T06:11:23.318Z,1.57
2019-01-26T06:12:29.708Z,1.55
2019-01-26T06:13:36.091Z,1.53
2019-01-26T06:14:42.418Z,1.51
2019-01-26T06:15:48.824Z,1.66
2019-01-26T06:16:54.865Z,1.59
2019-01-26T06:18:01.225Z,1.57
2019-01-26T06:19:07.301Z,1.53
2019-01-26T06:20:13.032Z,1.42
2019-01-26T06:21:19.416Z,1.48
2019-01-26T06:22:25.758Z,1.51
2019-01-26T06:23:32.142Z,1.43
2019-01-26T06:24:38.783Z,1.51
2019-01-26T06:25:45.133Z,1.42
2019-01-26T06:26:51.188Z,1.43
2019-01-26T06:27:57.595Z,1.48
2019-01-26T06:29:03.680Z,1.50
2019-01-26T06:30:10.150Z,1.38
2019-01-26T06:31:16.525Z,1.45
2019-01-26T06:32:22.837Z,1.48
2019-01-26T06:33:29.446Z,1.52
2019-01-26T06:34:36.091Z,1.57
2019-01-26T06:35:42.159Z,1.53
2019-01-26T06:36:48.490Z,1.45
2019-01-26T06:37:54.922Z,1.50
2019-01-26T06:39:01.279Z,1.60
2019-01-26T06:40:06.996Z,1.64
2019-01-26T06:41:12.999Z,1.59
2019-01-26T06:42:19.404Z,1.63
2019-01-26T06:43:25.759Z,1.66
2019-01-26T06:44:32.137Z,1.56
2019-01-26T06:45:38.492Z,1.52
2019-01-26T06:46:44.848Z,1.44
2019-01-26T06:47:51.694Z,1.38
2019-01-26T06:48:58.392Z,1.35
2019-01-26T06:50:04.099Z,1.43
2019-01-26T06:51:10.415Z,1.49
2019-01-26T06:52:16.777Z,1.41
2019-01-26T06:53:23.140Z,1.39
2019-01-26T06:54:29.466Z,1.47
2019-01-26T06:55:35.839Z,1.67
2019-01-26T06:56:42.869Z,1.61
2019-01-26T06:57:48.850Z,1.58
2019-01-26T06:58:55.238Z,1.59
2019-01-26T07:00:01.640Z,1.63
2019-01-26T07:01:08.078Z,1.66
2019-01-26T07:02:14.459Z,1.54
2019-01-26T07:03:20.824Z,1.60
2019-01-26T07:04:26.948Z,1.68
2019-01-26T07:05:33.597Z,1.71
2019-01-26T07:06:39.985Z,1.75
2019-01-26T07:07:46.306Z,1.80
2019-01-26T07:08:52.854Z,1.79
2019-01-26T07:09:59.542Z,1.81
2019-01-26T07:11:05.406Z,1.67
2019-01-26T07:12:12.064Z,1.61
2019-01-26T07:13:18.448Z,1.64
2019-01-26T07:14:24.840Z,1.58
2019-01-26T07:15:31.325Z,1.59
2019-01-26T07:16:37.796Z,1.59
2019-01-26T07:17:44.188Z,1.58
2019-01-26T07:18:50.551Z,1.67
2019-01-26T07:19:56.638Z,1.71
2019-01-26T07:21:03.027Z,1.76
2019-01-26T07:22:09.389Z,1.63
2019-01-26T07:23:15.768Z,1.67
2019-01-26T07:24:22.010Z,1.64
2019-01-26T07:25:28.423Z,1.83
2019-01-26T07:26:34.787Z,1.87
2019-01-26T07:27:40.499Z,1.94
2019-01-26T07:28:46.566Z,1.79
2019-01-26T07:29:52.916Z,1.82
2019-01-26T07:30:59.926Z,1.83
2019-01-26T07:32:05.584Z,1.78
2019-01-26T07:33:11.233Z,1.77
2019-01-26T07:34:17.643Z,1.79
2019-01-26T07:35:24.088Z,1.64
2019-01-26T07:36:30.561Z,1.66
2019-01-26T07:37:36.643Z,1.73
2019-01-26T07:38:43.046Z,1.73
2019-01-26T07:39:49.707Z,1.84
2019-01-26T07:40:56.111Z,1.96
2019-01-26T07:42:02.431Z,1.94
2019-01-26T07:43:10.256Z,1.72
2019-01-26T07:44:15.249Z,1.74
2019-01-26T07:45:21.004Z,1.82
2019-01-26T07:46:27.336Z,1.82
2019-01-26T07:47:33.686Z,1.77
2019-01-26T07:48:40.043Z,1.75
2019-01-26T07:49:46.440Z,1.73
2019-01-26T07:50:52.274Z,1.79
2019-01-26T07:51:58.394Z,1.71
2019-01-26T07:53:04.439Z,1.89
2019-01-26T07:54:10.539Z,1.81
2019-01-26T07:55:16.255Z,1.87
2019-01-26T07:56:22.335Z,1.93
2019-01-26T07:57:28.685Z,1.90
2019-01-26T07:58:35.059Z,2.01
2019-01-26T07:59:41.414Z,2.01
2019-01-26T08:00:47.806Z,1.97
2019-01-26T08:01:54.276Z,1.92
2019-01-26T08:03:00.007Z,1.99
2019-01-26T08:04:06.017Z,1.89
2019-01-26T08:05:11.786Z,1.86
2019-01-26T08:06:18.335Z,2.01
2019-01-26T08:07:24.670Z,2.01
2019-01-26T08:08:31.067Z,1.96
2019-01-26T08:09:37.396Z,2.04
2019-01-26T08:10:43.758Z,1.89
2019-01-26T08:11:50.179Z,1.97
2019-01-26T08:12:56.549Z,2.02
2019-01-26T08:14:03.150Z,2.05
2019-01-26T08:15:09.071Z,1.97
2019-01-26T08:16:15.501Z,2.01
2019-01-26T08:17:21.939Z,2.03
2019-01-26T08:18:28.308Z,1.90
2019-01-26T08:19:35.290Z,1.89
2019-01-26T08:20:41.706Z,2.05
2019-01-26T08:21:48.086Z,2.20
2019-01-26T08:22:54.121Z,2.02
2019-01-26T08:24:00.549Z,1.89
2019-01-26T08:25:06.283Z,1.89
2019-01-26T08:26:12.661Z,1.93
2019-01-26T08:27:19.018Z,1.84
2019-01-26T08:28:25.382Z,2.02
2019-01-26T08:29:31.769Z,2.06
2019-01-26T08:30:38.171Z,2.06
2019-01-26T08:31:44.527Z,1.97
2019-01-26T08:32:50.273Z,1.83
2019-01-26T08:33:56.660Z,1.98
2019-01-26T08:35:03.066Z,1.96
2019-01-26T08:36:09.469Z,1.93
2019-01-26T08:37:16.118Z,1.96
2019-01-26T08:38:23.131Z,2.16
2019-01-26T08:39:29.817Z,2.17
2019-01-26T08:40:36.465Z,2.26
2019-01-26T08:41:43.145Z,2.26
2019-01-26T08:42:49.232Z,2.19
2019-01-26T08:43:55.630Z,2.05
2019-01-26T08:45:02.002Z,2.05
2019-01-26T08:46:08.047Z,2.15
2019-01-26T08:47:14.401Z,2.09
2019-01-26T08:48:20.794Z,2.14
2019-01-26T08:49:27.273Z,2.22
2019-01-26T08:50:33.310Z,2.31
2019-01-26T08:51:39.785Z,2.19
2019-01-26T08:52:45.412Z,2.07
2019-01-26T08:53:51.777Z,2.16
2019-01-26T08:54:58.166Z,2.04
2019-01-26T08:56:05.181Z,2.19
2019-01-26T08:57:11.763Z,2.13
2019-01-26T08:58:18.130Z,2.09
2019-01-26T08:59:24.494Z,2.24
2019-01-26T09:00:30.524Z,2.31
2019-01-26T09:01:36.924Z,2.26
2019-01-26T09:02:48.324Z,2.12
2019-01-26T09:03:57.819Z,2.05
2019-01-26T09:05:03.841Z,2.09
2019-01-26T09:06:09.982Z,2.32
2019-01-26T09:07:16.295Z,2.41
2019-01-26T09:08:22.748Z,2.41
2019-01-26T09:09:29.093Z,2.37
2019-01-26T09:10:35.481Z,2.41
2019-01-26T09:11:42.172Z,2.50
2019-01-26T09:12:48.729Z,2.38
2019-01-26T09:13:55.220Z,2.20
2019-01-26T09:15:01.367Z,2.07
2019-01-26T09:16:07.074Z,2.18
2019-01-26T09:17:14.063Z,2.35
2019-01-26T09:18:20.390Z,2.34
2019-01-26T09:19:26.914Z,2.33
2019-01-26T09:20:33.324Z,2.26
2019-01-26T09:21:39.435Z,2.12
2019-01-26T09:22:45.163Z,2.21
2019-01-26T09:23:51.208Z,2.39
2019-01-26T09:24:57.706Z,2.39
2019-01-26T09:26:03.776Z,2.29
2019-01-26T09:27:09.843Z,2.20
2019-01-26T09:28:15.892Z,2.33
2019-01-26T09:29:22.001Z,2.43
2019-01-26T09:30:28.389Z,2.36
2019-01-26T09:31:34.946Z,2.42
2019-01-26T09:32:41.376Z,2.41
2019-01-26T09:33:47.781Z,2.52
2019-01-26T09:34:54.139Z,2.47
2019-01-26T09:36:00.524Z,2.41
2019-01-26T09:37:06.918Z,2.54
2019-01-26T09:38:13.377Z,2.57
2019-01-26T09:39:19.943Z,2.59
2019-01-26T09:40:26.365Z,2.65
2019-01-26T09:41:32.744Z,2.55
2019-01-26T09:42:38.847Z,2.54
2019-01-26T09:43:44.534Z,2.51
2019-01-26T09:44:50.876Z,2.48
2019-01-26T09:45:57.327Z,2.62
2019-01-26T09:47:03.129Z,2.53
2019-01-26T09:48:08.833Z,2.77
2019-01-26T09:49:14.584Z,2.64
2019-01-26T09:50:20.276Z,2.67
2019-01-26T09:51:26.895Z,2.49
2019-01-26T09:52:33.291Z,2.66
2019-01-26T09:53:39.718Z,2.59
2019-01-26T09:54:45.715Z,2.66
2019-01-26T09:55:52.220Z,2.67
2019-01-26T09:56:58.703Z,2.61
2019-01-26T09:58:04.484Z,2.73
2019-01-26T09:59:10.965Z,2.79
2019-01-26T10:00:17.971Z,2.69
2019-01-26T10:01:24.511Z,2.53
2019-01-26T10:02:31.644Z,2.57
2019-01-26T10:03:38.047Z,2.42
2019-01-26T10:04:44.607Z,2.39
2019-01-26T10:05:51.071Z,2.57
2019-01-26T10:06:57.498Z,2.69
2019-01-26T10:08:04.072Z,2.65
2019-01-26T10:09:09.810Z,2.65
2019-01-26T10:10:16.240Z,2.79
2019-01-26T10:11:22.778Z,2.86
2019-01-26T10:12:29.309Z,2.76
2019-01-26T10:13:35.811Z,2.74
2019-01-26T10:14:42.075Z,2.57
2019-01-26T10:15:48.532Z,2.68
2019-01-26T10:16:55.013Z,2.61
2019-01-26T10:18:00.697Z,2.76
2019-01-26T10:19:07.068Z,2.62
2019-01-26T10:20:13.223Z,2.61
2019-01-26T10:21:19.673Z,2.74
2019-01-26T10:22:26.238Z,2.68
2019-01-26T10:23:32.783Z,2.81
2019-01-26T10:24:39.324Z,2.88
2019-01-26T10:25:48.838Z,2.89
2019-01-26T10:26:52.343Z,2.94
2019-01-26T10:27:58.376Z,2.82
2019-01-26T10:29:04.432Z,2.94
2019-01-26T10:30:20.200Z,3.02
2019-01-26T10:31:27.470Z,2.97
2019-01-26T10:32:33.907Z,2.93
2019-01-26T10:33:40.416Z,2.83
2019-01-26T10:34:46.850Z,2.75
2019-01-26T10:37:29.777Z,2.96
2019-01-26T10:38:36.002Z,2.93
2019-01-26T10:39:42.337Z,2.98
2019-01-26T10:42:23.634Z,2.77
2019-01-26T10:43:36.413Z,2.83
2019-01-26T10:44:42.246Z,2.93
2019-01-26T10:45:48.684Z,2.98
2019-01-26T10:46:54.765Z,3.01
2019-01-26T10:48:01.251Z,2.87
2019-01-26T10:49:07.687Z,2.83
2019-01-26T10:50:14.194Z,2.90
2019-01-26T10:51:20.513Z,2.84
2019-01-26T10:52:26.701Z,2.75
2019-01-26T10:53:33.066Z,2.84
2019-01-26T10:54:39.593Z,3.01
2019-01-26T10:55:46.242Z,3.14
2019-01-26T10:56:52.652Z,3.14
2019-01-26T10:57:59.077Z,3.06
2019-01-26T10:59:04.866Z,3.13
2019-01-26T11:00:12.457Z,3.05
2019-01-26T11:01:18.667Z,3.12
2019-01-26T11:02:25.317Z,3.26
2019-01-26T11:03:31.815Z,3.21
2019-01-26T11:04:38.198Z,3.20
2019-01-26T11:05:44.214Z,3.17
2019-01-26T11:06:50.824Z,3.15
2019-01-26T11:07:57.284Z,3.13
2019-01-26T11:09:03.073Z,3.11
2019-01-26T11:10:09.145Z,3.11
2019-01-26T11:11:15.615Z,3.10
2019-01-26T11:12:22.198Z,3.13
2019-01-26T11:13:28.700Z,3.13
2019-01-26T11:14:35.193Z,3.17
2019-01-26T11:15:41.676Z,3.22
2019-01-26T11:16:47.777Z,3.35
2019-01-26T11:17:54.169Z,3.43
2019-01-26T11:19:00.622Z,3.34
2019-01-26T11:20:07.746Z,3.41
2019-01-26T11:21:14.187Z,3.37
2019-01-26T11:22:21.087Z,3.41
2019-01-26T11:23:27.138Z,3.34
2019-01-26T11:24:33.492Z,3.34
2019-01-26T11:25:39.940Z,3.53
2019-01-26T11:26:49.355Z,3.39
2019-01-26T11:27:52.206Z,3.51
2019-01-26T11:28:58.696Z,3.43
2019-01-26T11:30:04.304Z,3.51
2019-01-26T11:31:11.413Z,3.31
2019-01-26T11:32:18.863Z,3.36
2019-01-26T11:33:25.352Z,3.41
2019-01-26T11:34:31.732Z,3.41
2019-01-26T11:35:38.251Z,3.46
2019-01-26T11:36:44.312Z,3.55
2019-01-26T11:37:50.769Z,3.54
2019-01-26T11:38:56.842Z,3.54
2019-01-26T11:40:02.731Z,3.47
2019-01-26T11:41:09.205Z,3.46
2019-01-26T11:42:15.542Z,3.49
2019-01-26T11:43:21.912Z,3.46
2019-01-26T11:44:27.919Z,3.32
2019-01-26T11:45:36.098Z,3.32
2019-01-26T11:46:42.577Z,3.40
2019-01-26T11:47:49.037Z,3.55
2019-01-26T11:48:55.457Z,3.64
2019-01-26T11:50:01.846Z,3.55
2019-01-26T11:51:13.633Z,3.57
2019-01-26T11:52:20.042Z,3.60
2019-01-26T11:53:26.450Z,3.57
2019-01-26T11:54:32.875Z,3.60
2019-01-26T11:55:44.203Z,3.59
2019-01-26T11:56:50.342Z,3.58
2019-01-26T11:57:56.739Z,3.60
2019-01-26T11:59:02.451Z,3.60
2019-01-26T12:00:09.488Z,3.64
2019-01-26T12:01:21.324Z,3.60
2019-01-26T12:02:30.007Z,3.64
2019-01-26T12:05:06.205Z,3.80
2019-01-26T12:06:12.927Z,3.71
2019-01-26T12:07:18.978Z,3.70
2019-01-26T12:08:25.475Z,3.58
2019-01-26T12:09:31.859Z,3.66
2019-01-26T12:10:37.897Z,3.71
2019-01-26T12:11:43.874Z,3.74
2019-01-26T12:12:50.212Z,3.86
2019-01-26T12:13:56.298Z,3.71
2019-01-26T12:15:02.809Z,3.78
2019-01-26T12:16:09.179Z,3.71
2019-01-26T12:17:15.718Z,3.79
2019-01-26T12:18:22.153Z,3.75
2019-01-26T12:19:29.459Z,3.80
2019-01-26T12:20:35.574Z,3.80
2019-01-26T12:21:41.736Z,3.75
2019-01-26T12:22:48.114Z,3.84
2019-01-26T12:23:55.086Z,3.67
2019-01-26T12:25:01.138Z,3.82
2019-01-26T12:26:08.300Z,3.82
2019-01-26T12:27:14.739Z,3.68
2019-01-26T12:28:21.345Z,3.78
2019-01-26T12:29:27.955Z,3.78
2019-01-26T12:30:34.580Z,3.90
2019-01-26T12:31:41.106Z,3.76
2019-01-26T12:32:47.663Z,3.71
2019-01-26T12:33:54.814Z,3.73
2019-01-26T12:35:02.389Z,3.73
2019-01-26T12:36:08.981Z,3.68
2019-01-26T12:37:15.547Z,3.71
2019-01-26T12:38:22.116Z,3.66
2019-01-26T12:39:28.965Z,3.72
2019-01-26T12:40:35.552Z,3.65
2019-01-26T12:41:42.122Z,3.79
2019-01-26T12:42:49.036Z,3.93
2019-01-26T12:43:55.498Z,3.86
2019-01-26T12:45:01.869Z,3.90
2019-01-26T12:46:08.269Z,3.89
2019-01-26T12:47:17.140Z,3.93
2019-01-26T12:48:20.422Z,3.93
2019-01-26T12:49:29.690Z,3.86
2019-01-26T12:50:32.955Z,3.87
2019-01-26T12:51:39.284Z,3.85
2019-01-26T12:52:45.682Z,3.98
2019-01-26T12:53:52.154Z,4.00
2019-01-26T12:54:58.224Z,3.96
2019-01-26T12:56:03.983Z,3.85
2019-01-26T12:57:10.105Z,3.72
2019-01-26T12:58:16.667Z,3.75
2019-01-26T12:59:23.053Z,3.83
2019-01-26T13:00:45.391Z,3.86
2019-01-26T13:01:54.133Z,3.76
2019-01-26T13:03:00.999Z,3.82
2019-01-26T13:04:06.955Z,3.82
2019-01-26T13:05:13.128Z,3.79
2019-01-26T13:06:19.728Z,3.82
2019-01-26T13:07:26.315Z,3.98
2019-01-26T13:08:32.791Z,4.02
2019-01-26T13:09:39.232Z,4.01
2019-01-26T13:10:48.561Z,3.98
2019-01-26T13:11:55.197Z,4.06
2019-01-26T13:13:01.137Z,3.96
2019-01-26T13:14:07.309Z,4.07
2019-01-26T13:15:15.397Z,4.08
2019-01-26T13:18:24.711Z,3.94
2019-01-26T13:19:36.867Z,3.96
2019-01-26T13:20:37.488Z,3.92
2019-01-26T13:21:43.571Z,3.89
2019-01-26T13:22:50.033Z,4.05
2019-01-26T13:23:56.621Z,3.95
2019-01-26T13:25:02.635Z,3.94
2019-01-26T13:26:09.072Z,3.97
2019-01-26T13:27:15.448Z,3.98
2019-01-26T13:28:21.622Z,3.95
2019-01-26T13:29:28.124Z,3.95
2019-01-26T13:30:34.523Z,4.01
2019-01-26T13:31:40.992Z,4.04
2019-01-26T13:32:47.076Z,4.01
2019-01-26T13:33:53.557Z,3.97
2019-01-26T13:34:59.935Z,3.98
2019-01-26T13:36:06.106Z,3.93
2019-01-26T13:37:12.493Z,4.00
2019-01-26T13:38:18.591Z,4.04
2019-01-26T13:39:25.714Z,4.12
2019-01-26T13:40:33.988Z,4.03
2019-01-26T13:41:40.788Z,3.95
2019-01-26T13:42:48.034Z,4.09
2019-01-26T13:43:55.310Z,4.20
2019-01-26T13:45:03.423Z,4.28
2019-01-26T13:46:11.953Z,4.26
2019-01-26T13:47:19.275Z,4.19
2019-01-26T13:50:19.279Z,4.09
2019-01-26T13:51:26.069Z,4.17
2019-01-26T13:52:32.528Z,4.19
2019-01-26T13:53:38.589Z,4.06
2019-01-26T13:54:45.087Z,4.02
2019-01-26T13:55:51.543Z,4.10
2019-01-26T13:56:58.305Z,4.18
2019-01-26T13:58:04.582Z,4.24
2019-01-26T13:59:10.825Z,4.19
2019-01-26T14:01:50.835Z,4.15
2019-01-26T14:02:56.520Z,4.04
2019-01-26T14:04:02.918Z,4.04
2019-01-26T14:05:09.779Z,4.01
2019-01-26T14:06:16.152Z,4.17
2019-01-26T14:07:23.066Z,4.17
2019-01-26T14:08:29.494Z,4.17
2019-01-26T14:09:35.940Z,4.12
2019-01-26T14:10:42.462Z,4.20
2019-01-26T14:11:48.886Z,4.25
2019-01-26T14:12:55.309Z,4.28
2019-01-26T14:14:01.701Z,4.29
2019-01-26T14:15:07.461Z,4.32
2019-01-26T14:16:13.463Z,4.32
2019-01-26T14:17:20.440Z,4.32
2019-01-26T14:18:26.837Z,4.20
2019-01-26T14:19:33.782Z,4.27
2019-01-26T14:20:40.230Z,4.27
2019-01-26T14:21:46.617Z,4.10
2019-01-26T14:22:52.357Z,4.34
2019-01-26T14:23:58.803Z,4.37
2019-01-26T14:25:04.564Z,4.42
2019-01-26T14:26:10.925Z,4.41
2019-01-26T14:27:17.292Z,4.48
2019-01-26T14:28:23.439Z,4.33
2019-01-26T14:29:30.185Z,4.44
2019-01-26T14:30:36.239Z,4.38
2019-01-26T14:31:42.926Z,4.28
2019-01-26T14:32:52.705Z,4.30
2019-01-26T14:33:57.101Z,4.34
2019-01-26T14:35:03.587Z,4.39
2019-01-26T14:36:10.437Z,4.37
2019-01-26T14:37:17.167Z,4.28
2019-01-26T14:38:23.569Z,4.29
2019-01-26T14:39:30.495Z,4.20
2019-01-26T14:40:37.986Z,4.16
2019-01-26T14:41:45.040Z,4.12
2019-01-26T14:42:54.502Z,4.23
2019-01-26T14:43:58.260Z,4.19
2019-01-26T14:45:04.384Z,4.21
2019-01-26T14:46:11.077Z,4.24
2019-01-26T14:47:17.887Z,4.15
2019-01-26T14:48:24.673Z,4.17
2019-01-26T14:49:31.078Z,4.22
2019-01-26T14:50:37.617Z,4.20